sensor_id;sensor_type;location;lat;lon;timestamp;pressure;altitude;pressure_sealevel;temperature;humidity
2785;BME280;57944;48.722;9.316;2022-10-26T00:01:16;98084.03;;;11.47;100.00
2785;BME280;57944;48.722;9.316;2022-10-26T00:03:46;98086.19;;;11.50;100.00
2785;BME280;57944;48.722;9.316;2022-10-26T00:06:19;98088.16;;;11.48;100.00
2785;BME280;57944;48.722;9.316;2022-10-26T00:08:51;98087.78;;;11.51;100.00
2785;BME280;57944;48.722;9.316;2022-10-26T00:11:21;98098.75;;;11.45;100.00
2785;BME280;57944;48.722;9.316;2022-10-26T00:13:54;98100.72;;;11.43;100.00
2785;BME280;57944;48.722;9.316;2022-10-26T00:16:26;98096.59;;;11.41;100.00
2785;BME280;57944;48.722;9.316;2022-10-26T00:18:57;98097.78;;;11.46;100.00
2785;BME280;57944;48.722;9.316;2022-10-26T00:21:27;98099.16;;;11.48;100.00
2785;BME280;57944;48.722;9.316;2022-10-26T00:23:58;98099.56;;;11.52;100.00
2785;BME280;57944;48.722;9.316;2022-10-26T00:26:28;98099.16;;;11.55;100.00
2785;BME280;57944;48.722;9.316;2022-10-26T00:29:01;98105.06;;;11.62;100.00
2785;BME280;57944;48.722;9.316;2022-10-26T00:31:31;98098.19;;;11.69;100.00
2785;BME280;57944;48.722;9.316;2022-10-26T00:34:01;98103.91;;;11.71;100.00
2785;BME280;57944;48.722;9.316;2022-10-26T00:36:31;98099.56;;;11.72;100.00
2785;BME280;57944;48.722;9.316;2022-10-26T00:39:04;98098.78;;;11.71;100.00
2785;BME280;57944;48.722;9.316;2022-10-26T00:41:34;98088.56;;;11.71;100.00
2785;BME280;57944;48.722;9.316;2022-10-26T00:44:55;98094.84;;;11.49;100.00
2785;BME280;57944;48.722;9.316;2022-10-26T00:47:36;98092.91;;;11.51;100.00
2785;BME280;57944;48.722;9.316;2022-10-26T00:50:14;98096.78;;;11.47;100.00
2785;BME280;57944;48.722;9.316;2022-10-26T00:52:45;98092.50;;;11.54;100.00
2785;BME280;57944;48.722;9.316;2022-10-26T00:55:17;98102.13;;;11.65;100.00
2785;BME280;57944;48.722;9.316;2022-10-26T00:57:52;98091.31;;;11.70;100.00
2785;BME280;57944;48.722;9.316;2022-10-26T01:00:25;98107.06;;;11.73;100.00
2785;BME280;57944;48.722;9.316;2022-10-26T01:02:59;98103.09;;;11.77;100.00
2785;BME280;57944;48.722;9.316;2022-10-26T01:05:32;98109.00;;;11.84;100.00
2785;BME280;57944;48.722;9.316;2022-10-26T01:08:04;98104.50;;;11.87;100.00
2785;BME280;57944;48.722;9.316;2022-10-26T01:10:38;98107.06;;;11.87;100.00
2785;BME280;57944;48.722;9.316;2022-10-26T01:13:12;98103.53;;;11.88;100.00
2785;BME280;57944;48.722;9.316;2022-10-26T01:15:54;98095.28;;;11.85;100.00
2785;BME280;57944;48.722;9.316;2022-10-26T01:18:39;98096.44;;;11.83;100.00
2785;BME280;57944;48.722;9.316;2022-10-26T01:21:44;98083.47;;;11.84;100.00
2785;BME280;57944;48.722;9.316;2022-10-26T01:24:48;98079.34;;;11.77;100.00
2785;BME280;57944;48.722;9.316;2022-10-26T01:27:28;98087.59;;;11.46;100.00
2785;BME280;57944;48.722;9.316;2022-10-26T01:30:35;98080.06;;;11.31;100.00
2785;BME280;57944;48.722;9.316;2022-10-26T01:33:27;98081.28;;;11.28;100.00
2785;BME280;57944;48.722;9.316;2022-10-26T01:36:12;98068.31;;;11.36;100.00
2785;BME280;57944;48.722;9.316;2022-10-26T01:38:55;98065.00;;;11.43;100.00
2785;BME280;57944;48.722;9.316;2022-10-26T01:41:31;98064.38;;;11.27;100.00
2785;BME280;57944;48.722;9.316;2022-10-26T01:44:17;98057.25;;;11.03;100.00
2785;BME280;57944;48.722;9.316;2022-10-26T01:46:54;98043.38;;;11.12;100.00
2785;BME280;57944;48.722;9.316;2022-10-26T01:49:32;98048.88;;;11.22;100.00
2785;BME280;57944;48.722;9.316;2022-10-26T01:52:05;98055.53;;;11.03;100.00
2785;BME280;57944;48.722;9.316;2022-10-26T01:54:35;98048.63;;;10.97;100.00
2785;BME280;57944;48.722;9.316;2022-10-26T01:57:08;98044.91;;;11.00;100.00
2785;BME280;57944;48.722;9.316;2022-10-26T02:00:04;98047.44;;;11.00;100.00
2785;BME280;57944;48.722;9.316;2022-10-26T02:03:00;98057.09;;;11.04;100.00
2785;BME280;57944;48.722;9.316;2022-10-26T02:05:50;98065.63;;;10.83;100.00
2785;BME280;57944;48.722;9.316;2022-10-26T02:08:37;98066.84;;;10.87;100.00
2785;BME280;57944;48.722;9.316;2022-10-26T02:11:24;98060.59;;;10.96;100.00
2785;BME280;57944;48.722;9.316;2022-10-26T02:14:08;98045.91;;;11.18;100.00
2785;BME280;57944;48.722;9.316;2022-10-26T02:16:52;98048.28;;;11.27;100.00
2785;BME280;57944;48.722;9.316;2022-10-26T02:19:34;98036.31;;;11.27;100.00
2785;BME280;57944;48.722;9.316;2022-10-26T02:22:16;98029.25;;;11.16;100.00
2785;BME280;57944;48.722;9.316;2022-10-26T02:24:51;98041.34;;;10.94;100.00
2785;BME280;57944;48.722;9.316;2022-10-26T02:27:26;98043.06;;;10.80;100.00
2785;BME280;57944;48.722;9.316;2022-10-26T02:29:59;98061.69;;;10.67;100.00
2785;BME280;57944;48.722;9.316;2022-10-26T02:32:34;98072.03;;;10.66;100.00
2785;BME280;57944;48.722;9.316;2022-10-26T02:35:10;98062.84;;;10.71;100.00
2785;BME280;57944;48.722;9.316;2022-10-26T02:37:44;98061.75;;;10.94;100.00
2785;BME280;57944;48.722;9.316;2022-10-26T02:40:21;98062.97;;;11.05;100.00
2785;BME280;57944;48.722;9.316;2022-10-26T02:42:55;98062.56;;;11.08;100.00
2785;BME280;57944;48.722;9.316;2022-10-26T02:45:34;98060.63;;;11.10;100.00
2785;BME280;57944;48.722;9.316;2022-10-26T02:48:06;98065.94;;;11.15;100.00
2785;BME280;57944;48.722;9.316;2022-10-26T02:50:49;98066.91;;;11.14;100.00
2785;BME280;57944;48.722;9.316;2022-10-26T02:53:28;98061.19;;;10.99;100.00
2785;BME280;57944;48.722;9.316;2022-10-26T02:56:06;98070.00;;;10.96;100.00
2785;BME280;57944;48.722;9.316;2022-10-26T02:58:48;98072.34;;;10.98;100.00
2785;BME280;57944;48.722;9.316;2022-10-26T03:01:20;98073.16;;;11.05;100.00
2785;BME280;57944;48.722;9.316;2022-10-26T03:03:50;98064.53;;;11.06;100.00
2785;BME280;57944;48.722;9.316;2022-10-26T03:06:28;98077.03;;;10.87;100.00
2785;BME280;57944;48.722;9.316;2022-10-26T03:08:58;98066.84;;;10.94;100.00
2785;BME280;57944;48.722;9.316;2022-10-26T03:11:28;98073.56;;;11.02;100.00
2785;BME280;57944;48.722;9.316;2022-10-26T03:13:58;98078.09;;;11.06;100.00
2785;BME280;57944;48.722;9.316;2022-10-26T03:16:28;98080.47;;;11.21;100.00
2785;BME280;57944;48.722;9.316;2022-10-26T03:18:58;98088.72;;;11.36;100.00
2785;BME280;57944;48.722;9.316;2022-10-26T03:21:30;98090.31;;;11.37;100.00
2785;BME280;57944;48.722;9.316;2022-10-26T03:24:00;98093.06;;;11.43;100.00
2785;BME280;57944;48.722;9.316;2022-10-26T03:26:30;98107.59;;;11.49;100.00
2785;BME280;57944;48.722;9.316;2022-10-26T03:29:01;98109.78;;;11.45;100.00
2785;BME280;57944;48.722;9.316;2022-10-26T03:31:31;98116.63;;;11.38;100.00
2785;BME280;57944;48.722;9.316;2022-10-26T03:34:01;98115.66;;;11.46;100.00
2785;BME280;57944;48.722;9.316;2022-10-26T03:36:33;98119.16;;;11.45;100.00
2785;BME280;57944;48.722;9.316;2022-10-26T03:39:03;98123.66;;;11.36;100.00
2785;BME280;57944;48.722;9.316;2022-10-26T03:41:33;98141.13;;;11.32;100.00
2785;BME280;57944;48.722;9.316;2022-10-26T03:44:04;98161.53;;;11.32;100.00
2785;BME280;57944;48.722;9.316;2022-10-26T03:46:34;98154.94;;;11.51;100.00
2785;BME280;57944;48.722;9.316;2022-10-26T03:49:04;98148.66;;;11.54;100.00
2785;BME280;57944;48.722;9.316;2022-10-26T03:51:36;98142.38;;;11.63;100.00
2785;BME280;57944;48.722;9.316;2022-10-26T03:54:07;98145.31;;;11.67;100.00
2785;BME280;57944;48.722;9.316;2022-10-26T03:56:37;98148.66;;;11.67;100.00
2785;BME280;57944;48.722;9.316;2022-10-26T03:59:07;98149.25;;;11.69;100.00
2785;BME280;57944;48.722;9.316;2022-10-26T04:01:37;98147.47;;;11.63;100.00
2785;BME280;57944;48.722;9.316;2022-10-26T04:04:07;98135.28;;;11.52;100.00
2785;BME280;57944;48.722;9.316;2022-10-26T04:06:40;98130.94;;;11.39;100.00
2785;BME280;57944;48.722;9.316;2022-10-26T04:09:30;98118.78;;;11.48;100.00
2785;BME280;57944;48.722;9.316;2022-10-26T04:12:00;98116.81;;;11.50;100.00
2785;BME280;57944;48.722;9.316;2022-10-26T04:14:30;98110.75;;;11.51;100.00
2785;BME280;57944;48.722;9.316;2022-10-26T04:17:00;98109.56;;;11.47;100.00
2785;BME280;57944;48.722;9.316;2022-10-26T04:19:30;98092.09;;;11.44;100.00
2785;BME280;57944;48.722;9.316;2022-10-26T04:22:03;98076.56;;;11.38;100.00
2785;BME280;57944;48.722;9.316;2022-10-26T04:24:33;98064.19;;;11.35;100.00
2785;BME280;57944;48.722;9.316;2022-10-26T04:27:03;98096.38;;;11.36;100.00
2785;BME280;57944;48.722;9.316;2022-10-26T04:29:33;98126.16;;;11.16;100.00
2785;BME280;57944;48.722;9.316;2022-10-26T04:32:03;98130.47;;;11.09;100.00
2785;BME280;57944;48.722;9.316;2022-10-26T04:34:33;98108.13;;;11.24;100.00
2785;BME280;57944;48.722;9.316;2022-10-26T04:37:06;98107.00;;;11.40;100.00
2785;BME280;57944;48.722;9.316;2022-10-26T04:39:36;98119.97;;;11.52;100.00
2785;BME280;57944;48.722;9.316;2022-10-26T04:42:06;98137.84;;;11.45;100.00
2785;BME280;57944;48.722;9.316;2022-10-26T04:44:36;98122.53;;;11.52;100.00
2785;BME280;57944;48.722;9.316;2022-10-26T04:47:06;98102.09;;;11.52;100.00
2785;BME280;57944;48.722;9.316;2022-10-26T04:49:36;98104.25;;;11.41;100.00
2785;BME280;57944;48.722;9.316;2022-10-26T04:52:08;98088.13;;;11.28;100.00
2785;BME280;57944;48.722;9.316;2022-10-26T04:54:39;98105.03;;;11.35;100.00
2785;BME280;57944;48.722;9.316;2022-10-26T04:57:09;98095.03;;;11.40;100.00
2785;BME280;57944;48.722;9.316;2022-10-26T04:59:39;98092.09;;;11.37;100.00
2785;BME280;57944;48.722;9.316;2022-10-26T05:02:09;98099.91;;;11.35;100.00
2785;BME280;57944;48.722;9.316;2022-10-26T05:04:39;98094.81;;;11.35;100.00
2785;BME280;57944;48.722;9.316;2022-10-26T05:07:12;98100.69;;;11.29;100.00
2785;BME280;57944;48.722;9.316;2022-10-26T05:09:42;98110.50;;;11.32;100.00
2785;BME280;57944;48.722;9.316;2022-10-26T05:12:12;98114.44;;;11.35;100.00
2785;BME280;57944;48.722;9.316;2022-10-26T05:14:42;98114.06;;;11.38;100.00
2785;BME280;57944;48.722;9.316;2022-10-26T05:17:12;98116.00;;;11.36;100.00
2785;BME280;57944;48.722;9.316;2022-10-26T05:19:42;98108.56;;;11.34;100.00
2785;BME280;57944;48.722;9.316;2022-10-26T05:22:22;98109.34;;;11.35;100.00
2785;BME280;57944;48.722;9.316;2022-10-26T05:24:52;98118.34;;;11.24;100.00
2785;BME280;57944;48.722;9.316;2022-10-26T05:27:22;98127.00;;;11.30;100.00
2785;BME280;57944;48.722;9.316;2022-10-26T05:29:52;98121.91;;;11.36;100.00
2785;BME280;57944;48.722;9.316;2022-10-26T05:32:22;98123.88;;;11.41;100.00
2785;BME280;57944;48.722;9.316;2022-10-26T05:34:52;98125.25;;;11.37;100.00
2785;BME280;57944;48.722;9.316;2022-10-26T05:37:27;98126.84;;;11.51;100.00
2785;BME280;57944;48.722;9.316;2022-10-26T05:39:57;98139.81;;;11.56;100.00
2785;BME280;57944;48.722;9.316;2022-10-26T05:42:28;98134.13;;;11.54;100.00
2785;BME280;57944;48.722;9.316;2022-10-26T05:44:58;98136.47;;;11.56;100.00
2785;BME280;57944;48.722;9.316;2022-10-26T05:47:28;98140.00;;;11.55;100.00
2785;BME280;57944;48.722;9.316;2022-10-26T05:49:58;98141.22;;;11.59;100.00
2785;BME280;57944;48.722;9.316;2022-10-26T05:52:37;98134.91;;;11.61;100.00
2785;BME280;57944;48.722;9.316;2022-10-26T05:55:11;98135.31;;;11.65;100.00
2785;BME280;57944;48.722;9.316;2022-10-26T05:57:43;98140.81;;;11.62;100.00
2785;BME280;57944;48.722;9.316;2022-10-26T06:00:17;98136.47;;;11.56;100.00
2785;BME280;57944;48.722;9.316;2022-10-26T06:03:05;98143.13;;;11.44;100.00
2785;BME280;57944;48.722;9.316;2022-10-26T06:05:51;98145.50;;;11.52;100.00
2785;BME280;57944;48.722;9.316;2022-10-26T06:08:27;98160.03;;;11.58;100.00
2785;BME280;57944;48.722;9.316;2022-10-26T06:10:58;98160.25;;;11.56;100.00
2785;BME280;57944;48.722;9.316;2022-10-26T06:13:30;98162.81;;;11.63;100.00
2785;BME280;57944;48.722;9.316;2022-10-26T06:16:20;98168.31;;;11.73;100.00
2785;BME280;57944;48.722;9.316;2022-10-26T06:19:02;98174.19;;;11.67;100.00
2785;BME280;57944;48.722;9.316;2022-10-26T06:21:53;98179.72;;;11.77;100.00
2785;BME280;57944;48.722;9.316;2022-10-26T06:24:35;98179.28;;;11.67;100.00
2785;BME280;57944;48.722;9.316;2022-10-26T06:27:21;98185.81;;;11.76;100.00
2785;BME280;57944;48.722;9.316;2022-10-26T06:29:59;98198.19;;;11.79;100.00
2785;BME280;57944;48.722;9.316;2022-10-26T06:32:30;98200.59;;;11.88;100.00
2785;BME280;57944;48.722;9.316;2022-10-26T06:35:19;98210.41;;;11.91;100.00
2785;BME280;57944;48.722;9.316;2022-10-26T06:37:54;98205.72;;;12.01;100.00
2785;BME280;57944;48.722;9.316;2022-10-26T06:40:31;98213.56;;;12.06;100.00
2785;BME280;57944;48.722;9.316;2022-10-26T06:43:08;98213.94;;;12.03;100.00
2785;BME280;57944;48.722;9.316;2022-10-26T06:45:47;98214.75;;;12.10;100.00
2785;BME280;57944;48.722;9.316;2022-10-26T06:48:26;98223.59;;;12.14;100.00
2785;BME280;57944;48.722;9.316;2022-10-26T06:50:58;98223.78;;;12.19;100.00
2785;BME280;57944;48.722;9.316;2022-10-26T06:53:36;98229.09;;;12.24;100.00
2785;BME280;57944;48.722;9.316;2022-10-26T06:56:13;98232.06;;;12.28;100.00
2785;BME280;57944;48.722;9.316;2022-10-26T06:58:45;98229.72;;;12.26;100.00
2785;BME280;57944;48.722;9.316;2022-10-26T07:01:18;98231.47;;;12.33;100.00
2785;BME280;57944;48.722;9.316;2022-10-26T07:03:48;98226.34;;;12.33;100.00
2785;BME280;57944;48.722;9.316;2022-10-26T07:06:18;98233.84;;;12.34;100.00
2785;BME280;57944;48.722;9.316;2022-10-26T07:08:49;98239.72;;;12.41;100.00
2785;BME280;57944;48.722;9.316;2022-10-26T07:11:21;98239.16;;;12.46;100.00
2785;BME280;57944;48.722;9.316;2022-10-26T07:13:51;98237.97;;;12.48;100.00
2785;BME280;57944;48.722;9.316;2022-10-26T07:16:22;98243.47;;;12.52;100.00
2785;BME280;57944;48.722;9.316;2022-10-26T07:18:52;98244.66;;;12.43;100.00
2785;BME280;57944;48.722;9.316;2022-10-26T07:21:22;98254.06;;;12.42;100.00
2785;BME280;57944;48.722;9.316;2022-10-26T07:23:52;98253.69;;;12.45;100.00
2785;BME280;57944;48.722;9.316;2022-10-26T07:26:25;98262.34;;;12.44;100.00
2785;BME280;57944;48.722;9.316;2022-10-26T07:28:55;98264.91;;;12.38;100.00
2785;BME280;57944;48.722;9.316;2022-10-26T07:31:26;98256.63;;;12.36;100.00
2785;BME280;57944;48.722;9.316;2022-10-26T07:33:56;98258.81;;;12.45;100.00
2785;BME280;57944;48.722;9.316;2022-10-26T07:36:28;98265.88;;;12.57;100.00
2785;BME280;57944;48.722;9.316;2022-10-26T07:38:58;98274.53;;;12.69;100.00
2785;BME280;57944;48.722;9.316;2022-10-26T07:41:31;98269.19;;;12.84;100.00
2785;BME280;57944;48.722;9.316;2022-10-26T07:44:01;98281.22;;;12.90;100.00
2785;BME280;57944;48.722;9.316;2022-10-26T07:46:32;98280.59;;;13.01;100.00
2785;BME280;57944;48.722;9.316;2022-10-26T07:49:02;98282.34;;;13.07;100.00
2785;BME280;57944;48.722;9.316;2022-10-26T07:51:32;98285.50;;;13.09;100.00
2785;BME280;57944;48.722;9.316;2022-10-26T07:54:02;98287.47;;;13.07;100.00
2785;BME280;57944;48.722;9.316;2022-10-26T07:56:35;98292.56;;;13.14;100.00
2785;BME280;57944;48.722;9.316;2022-10-26T07:59:05;98297.28;;;13.17;100.00
2785;BME280;57944;48.722;9.316;2022-10-26T08:01:35;98297.88;;;13.32;100.00
2785;BME280;57944;48.722;9.316;2022-10-26T08:04:05;98300.97;;;13.54;100.00
2785;BME280;57944;48.722;9.316;2022-10-26T08:06:35;98301.47;;;13.70;100.00
2785;BME280;57944;48.722;9.316;2022-10-26T08:09:06;98303.81;;;13.78;100.00
2785;BME280;57944;48.722;9.316;2022-10-26T08:11:38;98297.09;;;13.83;100.00
2785;BME280;57944;48.722;9.316;2022-10-26T08:14:10;98297.06;;;13.90;100.00
2785;BME280;57944;48.722;9.316;2022-10-26T08:16:40;98302.97;;;13.91;100.00
2785;BME280;57944;48.722;9.316;2022-10-26T08:19:10;98309.66;;;13.92;100.00
2785;BME280;57944;48.722;9.316;2022-10-26T08:21:40;98305.31;;;13.92;100.00
2785;BME280;57944;48.722;9.316;2022-10-26T08:24:10;98312.75;;;14.00;100.00
2785;BME280;57944;48.722;9.316;2022-10-26T08:26:43;98308.47;;;13.94;100.00
2785;BME280;57944;48.722;9.316;2022-10-26T08:29:13;98302.72;;;13.99;100.00
2785;BME280;57944;48.722;9.316;2022-10-26T08:31:43;98302.50;;;14.07;100.00
2785;BME280;57944;48.722;9.316;2022-10-26T08:34:14;98305.84;;;14.07;100.00
2785;BME280;57944;48.722;9.316;2022-10-26T08:36:44;98310.91;;;14.14;100.00
2785;BME280;57944;48.722;9.316;2022-10-26T08:39:15;98309.47;;;14.25;100.00
2785;BME280;57944;48.722;9.316;2022-10-26T08:41:54;98312.03;;;14.25;100.00
2785;BME280;57944;48.722;9.316;2022-10-26T08:44:34;98318.81;;;14.44;100.00
2785;BME280;57944;48.722;9.316;2022-10-26T08:47:15;98325.28;;;14.53;100.00
2785;BME280;57944;48.722;9.316;2022-10-26T08:49:52;98331.31;;;14.66;100.00
2785;BME280;57944;48.722;9.316;2022-10-26T08:52:36;98326.06;;;14.79;100.00
2785;BME280;57944;48.722;9.316;2022-10-26T08:55:15;98337.50;;;14.83;100.00
2785;BME280;57944;48.722;9.316;2022-10-26T08:57:49;98337.22;;;14.91;100.00
2785;BME280;57944;48.722;9.316;2022-10-26T09:00:24;98335.78;;;14.95;100.00
2785;BME280;57944;48.722;9.316;2022-10-26T09:02:55;98334.13;;;15.08;100.00
2785;BME280;57944;48.722;9.316;2022-10-26T09:05:31;98332.56;;;15.25;100.00
2785;BME280;57944;48.722;9.316;2022-10-26T09:08:16;98336.28;;;15.48;100.00
2785;BME280;57944;48.722;9.316;2022-10-26T09:10:58;98335.28;;;15.85;100.00
2785;BME280;57944;48.722;9.316;2022-10-26T09:13:47;98337.22;;;16.32;100.00
2785;BME280;57944;48.722;9.316;2022-10-26T09:16:31;98353.31;;;16.69;100.00
2785;BME280;57944;48.722;9.316;2022-10-26T09:19:26;98355.03;;;17.23;100.00
2785;BME280;57944;48.722;9.316;2022-10-26T09:22:06;98357.47;;;17.53;100.00
2785;BME280;57944;48.722;9.316;2022-10-26T09:24:46;98364.97;;;18.06;100.00
2785;BME280;57944;48.722;9.316;2022-10-26T09:27:25;98365.28;;;18.72;100.00
2785;BME280;57944;48.722;9.316;2022-10-26T09:30:11;98365.72;;;19.37;100.00
2785;BME280;57944;48.722;9.316;2022-10-26T09:32:46;98371.28;;;19.90;100.00
2785;BME280;57944;48.722;9.316;2022-10-26T09:35:21;98366.44;;;19.98;100.00
2785;BME280;57944;48.722;9.316;2022-10-26T09:37:57;98370.00;;;20.19;100.00
2785;BME280;57944;48.722;9.316;2022-10-26T09:40:35;98369.94;;;19.87;100.00
2785;BME280;57944;48.722;9.316;2022-10-26T09:43:15;98379.66;;;20.02;100.00
2785;BME280;57944;48.722;9.316;2022-10-26T09:45:51;98369.91;;;20.09;100.00
2785;BME280;57944;48.722;9.316;2022-10-26T09:48:31;98368.13;;;19.66;100.00
2785;BME280;57944;48.722;9.316;2022-10-26T09:51:02;98372.13;;;19.34;100.00
2785;BME280;57944;48.722;9.316;2022-10-26T09:53:32;98377.25;;;19.12;100.00
2785;BME280;57944;48.722;9.316;2022-10-26T09:56:06;98374.53;;;18.85;100.00
2785;BME280;57944;48.722;9.316;2022-10-26T09:58:45;98379.09;;;18.49;100.00
2785;BME280;57944;48.722;9.316;2022-10-26T10:01:28;98378.94;;;18.39;100.00
2785;BME280;57944;48.722;9.316;2022-10-26T10:04:16;98376.13;;;18.58;100.00
2785;BME280;57944;48.722;9.316;2022-10-26T10:06:49;98386.03;;;18.78;100.00
2785;BME280;57944;48.722;9.316;2022-10-26T10:09:21;98378.84;;;18.80;100.00
2785;BME280;57944;48.722;9.316;2022-10-26T10:11:54;98383.69;;;19.10;100.00
2785;BME280;57944;48.722;9.316;2022-10-26T10:14:28;98380.25;;;18.87;100.00
2785;BME280;57944;48.722;9.316;2022-10-26T10:17:18;98384.66;;;19.42;100.00
2785;BME280;57944;48.722;9.316;2022-10-26T10:19:50;98393.63;;;20.01;100.00
2785;BME280;57944;48.722;9.316;2022-10-26T10:22:24;98394.50;;;20.39;100.00
2785;BME280;57944;48.722;9.316;2022-10-26T10:24:58;98391.59;;;20.57;100.00
2785;BME280;57944;48.722;9.316;2022-10-26T10:27:29;98395.94;;;20.84;100.00
2785;BME280;57944;48.722;9.316;2022-10-26T10:30:20;98395.81;;;21.01;100.00
2785;BME280;57944;48.722;9.316;2022-10-26T10:33:07;98397.91;;;21.04;100.00
2785;BME280;57944;48.722;9.316;2022-10-26T10:35:48;98405.38;;;21.00;100.00
2785;BME280;57944;48.722;9.316;2022-10-26T10:38:20;98407.00;;;21.06;100.00
2785;BME280;57944;48.722;9.316;2022-10-26T10:40:54;98404.97;;;21.13;100.00
2785;BME280;57944;48.722;9.316;2022-10-26T10:43:26;98407.09;;;21.22;100.00
2785;BME280;57944;48.722;9.316;2022-10-26T10:45:58;98405.75;;;21.61;98.75
2785;BME280;57944;48.722;9.316;2022-10-26T10:48:46;98398.25;;;22.48;96.66
2785;BME280;57944;48.722;9.316;2022-10-26T10:51:22;98395.63;;;22.43;98.23
2785;BME280;57944;48.722;9.316;2022-10-26T10:53:55;98402.91;;;22.51;97.67
2785;BME280;57944;48.722;9.316;2022-10-26T10:56:33;98404.47;;;22.52;92.91
2785;BME280;57944;48.722;9.316;2022-10-26T10:59:25;98410.94;;;22.40;93.31
2785;BME280;57944;48.722;9.316;2022-10-26T11:02:43;98405.78;;;22.65;92.61
2785;BME280;57944;48.722;9.316;2022-10-26T11:05:35;98410.44;;;23.14;93.87
2785;BME280;57944;48.722;9.316;2022-10-26T11:08:12;98410.41;;;23.35;91.43
2785;BME280;57944;48.722;9.316;2022-10-26T11:10:50;98415.19;;;23.88;82.89
2785;BME280;57944;48.722;9.316;2022-10-26T11:13:28;98421.69;;;23.85;83.24
2785;BME280;57944;48.722;9.316;2022-10-26T11:16:03;98410.44;;;23.95;80.72
2785;BME280;57944;48.722;9.316;2022-10-26T11:18:38;98419.00;;;24.50;71.43
2785;BME280;57944;48.722;9.316;2022-10-26T11:21:23;98415.38;;;23.01;86.98
2785;BME280;57944;48.722;9.316;2022-10-26T11:24:11;98410.72;;;22.57;85.97
2785;BME280;57944;48.722;9.316;2022-10-26T11:26:49;98411.22;;;22.69;88.29
2785;BME280;57944;48.722;9.316;2022-10-26T11:29:30;98413.03;;;22.38;88.85
2785;BME280;57944;48.722;9.316;2022-10-26T11:32:14;98410.41;;;22.33;88.17
2785;BME280;57944;48.722;9.316;2022-10-26T11:34:54;98412.69;;;22.14;93.73
2785;BME280;57944;48.722;9.316;2022-10-26T11:37:37;98408.09;;;22.51;89.91
2785;BME280;57944;48.722;9.316;2022-10-26T11:40:25;98407.06;;;23.09;86.63
2785;BME280;57944;48.722;9.316;2022-10-26T11:43:08;98411.72;;;22.91;81.90
2785;BME280;57944;48.722;9.316;2022-10-26T11:45:44;98417.72;;;22.77;87.28
2785;BME280;57944;48.722;9.316;2022-10-26T11:48:21;98422.66;;;23.19;83.50
2785;BME280;57944;48.722;9.316;2022-10-26T11:50:56;98427.59;;;23.00;84.17
2785;BME280;57944;48.722;9.316;2022-10-26T11:53:37;98426.50;;;23.42;82.25
2785;BME280;57944;48.722;9.316;2022-10-26T11:56:17;98423.13;;;23.36;79.49
2785;BME280;57944;48.722;9.316;2022-10-26T11:58:52;98427.00;;;23.54;74.03
2785;BME280;57944;48.722;9.316;2022-10-26T12:01:23;98434.25;;;23.57;80.77
2785;BME280;57944;48.722;9.316;2022-10-26T12:03:56;98433.63;;;23.91;75.36
2785;BME280;57944;48.722;9.316;2022-10-26T12:06:32;98424.19;;;23.20;78.83
2785;BME280;57944;48.722;9.316;2022-10-26T12:09:12;98429.16;;;23.16;77.79
2785;BME280;57944;48.722;9.316;2022-10-26T12:11:49;98423.94;;;22.86;76.31
2785;BME280;57944;48.722;9.316;2022-10-26T12:14:26;98422.13;;;22.91;75.04
2785;BME280;57944;48.722;9.316;2022-10-26T12:17:06;98423.69;;;22.57;82.68
2785;BME280;57944;48.722;9.316;2022-10-26T12:19:46;98425.25;;;22.78;84.40
2785;BME280;57944;48.722;9.316;2022-10-26T12:22:20;98428.34;;;22.44;83.43
2785;BME280;57944;48.722;9.316;2022-10-26T12:25:18;98429.13;;;22.50;75.89
2785;BME280;57944;48.722;9.316;2022-10-26T12:27:52;98434.63;;;23.05;83.47
2785;BME280;57944;48.722;9.316;2022-10-26T12:30:28;98435.13;;;22.91;78.73
2785;BME280;57944;48.722;9.316;2022-10-26T12:32:59;98440.31;;;23.37;77.00
2785;BME280;57944;48.722;9.316;2022-10-26T12:35:38;98436.44;;;23.25;74.72
2785;BME280;57944;48.722;9.316;2022-10-26T12:38:54;98430.47;;;22.63;83.85
2785;BME280;57944;48.722;9.316;2022-10-26T12:41:27;98441.19;;;22.03;82.98
2785;BME280;57944;48.722;9.316;2022-10-26T12:44:33;98442.59;;;21.63;85.17
2785;BME280;57944;48.722;9.316;2022-10-26T12:47:04;98444.31;;;22.00;82.54
2785;BME280;57944;48.722;9.316;2022-10-26T12:49:59;98438.09;;;21.96;86.96
2785;BME280;57944;48.722;9.316;2022-10-26T12:52:48;98433.97;;;22.11;80.31
2785;BME280;57944;48.722;9.316;2022-10-26T12:56:03;98442.84;;;22.25;81.33
2785;BME280;57944;48.722;9.316;2022-10-26T12:59:13;98446.53;;;22.65;78.82
2785;BME280;57944;48.722;9.316;2022-10-26T13:05:28;98463.72;;;23.22;75.67
2785;BME280;57944;48.722;9.316;2022-10-26T13:08:06;98457.94;;;23.46;69.32
2785;BME280;57944;48.722;9.316;2022-10-26T13:10:45;98457.41;;;23.74;69.26
2785;BME280;57944;48.722;9.316;2022-10-26T13:13:31;98459.00;;;23.39;72.51
2785;BME280;57944;48.722;9.316;2022-10-26T13:16:10;98460.44;;;23.92;70.54
2785;BME280;57944;48.722;9.316;2022-10-26T13:18:43;98464.25;;;24.09;66.60
2785;BME280;57944;48.722;9.316;2022-10-26T13:21:16;98463.63;;;23.78;69.49
2785;BME280;57944;48.722;9.316;2022-10-26T13:23:56;98462.84;;;23.83;70.95
2785;BME280;57944;48.722;9.316;2022-10-26T13:26:29;98462.72;;;24.03;68.51
2785;BME280;57944;48.722;9.316;2022-10-26T13:29:02;98459.72;;;24.36;68.07
2785;BME280;57944;48.722;9.316;2022-10-26T13:31:57;98465.03;;;24.60;65.59
2785;BME280;57944;48.722;9.316;2022-10-26T13:34:30;98460.25;;;24.33;66.76
2785;BME280;57944;48.722;9.316;2022-10-26T13:37:17;98462.59;;;23.74;70.91
2785;BME280;57944;48.722;9.316;2022-10-26T13:39:49;98458.94;;;23.80;71.82
2785;BME280;57944;48.722;9.316;2022-10-26T13:42:27;98466.75;;;23.65;72.01
2785;BME280;57944;48.722;9.316;2022-10-26T13:45:27;98462.47;;;23.04;73.63
2785;BME280;57944;48.722;9.316;2022-10-26T13:48:04;98469.19;;;22.80;75.22
2785;BME280;57944;48.722;9.316;2022-10-26T13:50:45;98472.81;;;22.63;82.09
2785;BME280;57944;48.722;9.316;2022-10-26T13:53:23;98474.75;;;22.15;84.83
2785;BME280;57944;48.722;9.316;2022-10-26T13:56:04;98466.59;;;21.91;83.09